createdAt,value
2022-12-24T00:00:58.630Z,22.61
2022-12-24T00:03:29.753Z,22.59
2022-12-24T00:06:00.332Z,22.60
2022-12-24T00:08:30.153Z,22.58
2022-12-24T00:11:00.101Z,22.58
2022-12-24T00:13:32.052Z,22.57
2022-12-24T00:16:02.948Z,22.56
2022-12-24T00:18:33.580Z,22.55
2022-12-24T00:21:04.450Z,22.55
2022-12-24T00:23:34.909Z,22.55
2022-12-24T00:26:05.031Z,22.55
2022-12-24T00:28:36.859Z,22.54
2022-12-24T00:31:13.790Z,22.53
2022-12-24T00:33:44.550Z,22.51
2022-12-24T00:36:14.439Z,22.50
2022-12-24T00:38:45.554Z,22.49
2022-12-24T00:41:26.621Z,22.45
2022-12-24T00:44:01.527Z,22.42
2022-12-24T00:46:35.290Z,22.42
2022-12-24T00:49:07.284Z,22.42
2022-12-24T00:51:38.249Z,22.42
2022-12-24T00:54:09.901Z,22.42
2022-12-24T00:56:39.671Z,22.42
2022-12-24T00:59:12.049Z,22.41
2022-12-24T01:01:42.595Z,22.40
2022-12-24T01:04:29.265Z,22.40
2022-12-24T01:06:59.390Z,22.38
2022-12-24T01:09:29.646Z,22.38
2022-12-24T01:11:59.955Z,22.37
2022-12-24T01:14:32.125Z,22.37
2022-12-24T01:17:01.859Z,22.34
2022-12-24T01:19:31.566Z,22.34
2022-12-24T01:22:01.863Z,22.32
2022-12-24T01:24:32.177Z,22.31
2022-12-24T01:27:02.490Z,22.32
2022-12-24T01:29:34.491Z,22.34
2022-12-24T01:32:04.467Z,22.32
2022-12-24T01:34:34.504Z,22.31
2022-12-24T01:37:04.756Z,22.30
2022-12-24T01:39:35.210Z,22.31
2022-12-24T01:42:22.263Z,22.28
2022-12-24T01:44:56.819Z,22.25
2022-12-24T01:47:32.413Z,22.24
2022-12-24T01:50:15.803Z,22.22
2022-12-24T01:52:46.599Z,22.21
2022-12-24T01:55:20.593Z,22.19
2022-12-24T01:57:57.372Z,22.18
2022-12-24T02:00:29.992Z,22.17
2022-12-24T02:03:00.733Z,22.16
2022-12-24T02:05:38.775Z,22.17
2022-12-24T02:08:11.575Z,22.18
2022-12-24T02:10:42.002Z,22.16
2022-12-24T02:13:13.695Z,22.18
2022-12-24T02:16:05.197Z,22.18
2022-12-24T02:18:49.127Z,22.16
2022-12-24T02:21:53.854Z,22.15
2022-12-24T02:25:03.603Z,22.13
2022-12-24T02:27:56.920Z,22.12
2022-12-24T02:30:37.056Z,22.12
2022-12-24T02:33:26.257Z,22.12
2022-12-24T02:36:06.264Z,22.11
2022-12-24T02:38:44.438Z,22.12
2022-12-24T02:41:22.948Z,22.13
2022-12-24T02:43:55.831Z,22.13
2022-12-24T02:46:32.921Z,22.14
2022-12-24T02:49:04.414Z,22.14
2022-12-24T02:51:35.423Z,22.14
2022-12-24T02:54:05.436Z,22.14
2022-12-24T02:56:54.018Z,22.14
2022-12-24T02:59:52.218Z,22.13
2022-12-24T03:02:38.913Z,22.14
2022-12-24T03:05:25.400Z,22.12
2022-12-24T03:08:06.302Z,22.11
2022-12-24T03:10:49.214Z,22.12
2022-12-24T03:13:22.511Z,22.12
2022-12-24T03:15:54.502Z,22.12
2022-12-24T03:18:29.450Z,22.12
2022-12-24T03:21:08.179Z,22.13
2022-12-24T03:23:38.557Z,22.12
2022-12-24T03:26:13.500Z,22.13
2022-12-24T03:28:45.930Z,22.13
2022-12-24T03:31:17.527Z,22.14
2022-12-24T03:33:50.514Z,22.15
2022-12-24T03:36:20.295Z,22.14
2022-12-24T03:38:50.402Z,22.15
2022-12-24T03:41:20.747Z,22.15
2022-12-24T03:43:51.083Z,22.13
2022-12-24T03:46:21.368Z,22.13
2022-12-24T03:48:53.493Z,22.13
2022-12-24T03:51:25.859Z,22.12
2022-12-24T03:53:57.611Z,22.11
2022-12-24T03:56:29.070Z,22.10
2022-12-24T03:58:59.375Z,22.09
2022-12-24T04:01:29.398Z,22.09
2022-12-24T04:04:01.210Z,22.09
2022-12-24T04:06:31.482Z,22.07
2022-12-24T04:09:05.311Z,22.04
2022-12-24T04:11:35.974Z,22.04
2022-12-24T04:14:06.259Z,22.03
2022-12-24T04:16:36.675Z,22.03
2022-12-24T04:19:08.191Z,22.01
2022-12-24T04:21:38.442Z,22.01
2022-12-24T04:24:08.913Z,22.00
2022-12-24T04:26:38.856Z,21.99
2022-12-24T04:29:10.042Z,22.00
2022-12-24T04:31:40.583Z,22.00
2022-12-24T04:34:12.360Z,21.99
2022-12-24T04:36:42.238Z,21.99
2022-12-24T04:39:11.941Z,21.96
2022-12-24T04:41:42.218Z,21.97
2022-12-24T04:44:13.226Z,21.97
2022-12-24T04:46:43.649Z,21.98
2022-12-24T04:49:15.534Z,21.97
2022-12-24T04:51:45.623Z,21.96
2022-12-24T04:54:16.215Z,21.96
2022-12-24T04:56:46.555Z,21.95
2022-12-24T04:59:16.751Z,21.94
2022-12-24T05:01:47.628Z,21.95
2022-12-24T05:04:19.737Z,21.94
2022-12-24T05:06:50.115Z,21.94
2022-12-24T05:09:20.206Z,21.94
2022-12-24T05:11:50.501Z,21.96
2022-12-24T05:14:20.969Z,21.97
2022-12-24T05:16:51.328Z,21.98
2022-12-24T05:19:22.827Z,21.98
2022-12-24T05:22:14.952Z,21.99
2022-12-24T05:25:01.718Z,21.99
2022-12-24T05:27:32.788Z,21.99
2022-12-24T05:30:03.113Z,21.98
2022-12-24T05:32:32.860Z,21.98
2022-12-24T05:35:04.533Z,22.00
2022-12-24T05:37:34.823Z,22.02
2022-12-24T05:40:04.997Z,22.03
2022-12-24T05:42:35.620Z,22.05
2022-12-24T05:45:06.359Z,22.08
2022-12-24T05:47:42.851Z,22.10
2022-12-24T05:50:16.601Z,22.12
2022-12-24T05:52:46.573Z,22.14
2022-12-24T05:55:17.085Z,22.14
2022-12-24T05:57:47.890Z,22.14
2022-12-24T06:00:19.168Z,22.14
2022-12-24T06:02:49.612Z,22.12
2022-12-24T06:05:21.706Z,22.12
2022-12-24T06:07:52.007Z,22.13
2022-12-24T06:10:21.920Z,22.16
2022-12-24T06:12:52.349Z,22.20
2022-12-24T06:15:24.339Z,22.25
2022-12-24T06:17:54.518Z,22.36
2022-12-24T06:20:27.143Z,22.45
2022-12-24T06:22:57.079Z,22.52
2022-12-24T06:25:27.462Z,22.62
2022-12-24T06:27:57.494Z,22.77
2022-12-24T06:30:27.992Z,22.92
2022-12-24T06:32:58.207Z,23.09
2022-12-24T06:35:30.609Z,23.26
2022-12-24T06:38:00.872Z,23.39
2022-12-24T06:40:31.870Z,23.51
2022-12-24T06:43:02.130Z,23.62
2022-12-24T06:45:32.608Z,23.68
2022-12-24T06:48:03.659Z,23.72
2022-12-24T06:50:36.917Z,23.72
2022-12-24T06:53:07.777Z,23.69
2022-12-24T06:55:38.464Z,23.65
2022-12-24T06:58:09.035Z,23.61
2022-12-24T07:00:39.490Z,23.56
2022-12-24T07:03:09.770Z,23.53
2022-12-24T07:05:43.755Z,23.50
2022-12-24T07:08:13.752Z,23.47
2022-12-24T07:10:46.486Z,23.46
2022-12-24T07:13:19.516Z,23.48
2022-12-24T07:15:49.955Z,23.59
2022-12-24T07:18:20.304Z,23.71
2022-12-24T07:20:52.718Z,23.81
2022-12-24T07:23:22.534Z,23.85
2022-12-24T07:25:52.980Z,23.88
2022-12-24T07:28:27.737Z,23.88
2022-12-24T07:30:58.869Z,23.87
2022-12-24T07:33:30.025Z,23.84
2022-12-24T07:36:08.773Z,23.81
2022-12-24T07:38:40.239Z,23.79
2022-12-24T07:41:10.446Z,23.76
2022-12-24T07:43:40.181Z,23.75
2022-12-24T07:46:10.754Z,23.73
2022-12-24T07:48:41.563Z,23.71
2022-12-24T07:51:13.366Z,23.68
2022-12-24T07:53:48.126Z,23.65
2022-12-24T07:56:19.019Z,23.63
2022-12-24T07:58:48.996Z,23.62
2022-12-24T08:01:18.992Z,23.62
2022-12-24T08:03:51.765Z,23.66
2022-12-24T08:06:24.207Z,23.81
2022-12-24T08:08:54.007Z,24.01
2022-12-24T08:11:24.319Z,24.21
2022-12-24T08:13:54.107Z,24.45
2022-12-24T08:16:24.638Z,24.68
2022-12-24T08:18:54.722Z,24.90
2022-12-24T08:21:26.600Z,25.06
2022-12-24T08:23:56.280Z,25.20
2022-12-24T08:26:26.630Z,25.40
2022-12-24T08:28:56.909Z,25.66
2022-12-24T08:31:27.496Z,25.95
2022-12-24T08:33:57.352Z,26.20
2022-12-24T08:36:28.468Z,26.39
2022-12-24T08:38:58.729Z,26.47
2022-12-24T08:41:29.108Z,26.47
2022-12-24T08:43:59.595Z,26.44
2022-12-24T08:46:30.427Z,26.39
2022-12-24T08:49:00.883Z,26.30
2022-12-24T08:51:33.010Z,26.20
2022-12-24T08:54:03.332Z,26.08
2022-12-24T08:56:34.933Z,25.97
2022-12-24T08:59:05.108Z,25.84
2022-12-24T09:01:35.778Z,25.73
2022-12-24T09:04:05.945Z,25.62
2022-12-24T09:06:38.525Z,25.53
2022-12-24T09:09:09.773Z,25.45
2022-12-24T09:11:40.191Z,25.37
2022-12-24T09:14:10.478Z,25.29
2022-12-24T09:16:41.107Z,25.19
2022-12-24T09:19:10.780Z,25.10
2022-12-24T09:21:42.771Z,25.03
2022-12-24T09:24:13.259Z,24.95
2022-12-24T09:26:43.934Z,24.89
2022-12-24T09:29:14.707Z,24.79
2022-12-24T09:31:45.164Z,24.72
2022-12-24T09:34:14.980Z,24.68
2022-12-24T09:36:47.038Z,24.62
2022-12-24T09:39:17.734Z,24.58
2022-12-24T09:42:02.205Z,24.55
2022-12-24T09:44:45.456Z,24.51
2022-12-24T09:47:28.991Z,24.50
2022-12-24T09:50:04.222Z,24.46
2022-12-24T09:52:41.395Z,24.45
2022-12-24T09:55:30.811Z,24.42
2022-12-24T09:58:04.780Z,24.37
2022-12-24T10:00:46.034Z,24.33
2022-12-24T10:03:20.615Z,24.29
2022-12-24T10:06:03.540Z,24.26
2022-12-24T10:08:51.193Z,24.20
2022-12-24T10:11:32.452Z,24.15
2022-12-24T10:14:29.260Z,24.09
2022-12-24T10:17:20.238Z,24.03
2022-12-24T10:20:02.327Z,23.95
2022-12-24T10:22:44.377Z,23.89
2022-12-24T10:25:25.405Z,23.83
2022-12-24T10:28:01.258Z,23.79
2022-12-24T10:30:32.430Z,23.73
2022-12-24T10:33:04.017Z,23.68
2022-12-24T10:35:46.482Z,23.62
2022-12-24T10:38:17.007Z,23.56
2022-12-24T10:40:52.874Z,23.52
2022-12-24T10:43:27.260Z,23.47
2022-12-24T10:46:01.323Z,23.42
2022-12-24T10:48:42.307Z,23.35
2022-12-24T10:51:23.532Z,23.27
2022-12-24T10:54:02.671Z,23.19
2022-12-24T10:56:34.225Z,23.09
2022-12-24T10:59:04.545Z,23.00
2022-12-24T11:01:49.839Z,22.92
2022-12-24T11:04:23.932Z,22.86
2022-12-24T11:07:00.256Z,22.81
2022-12-24T11:09:34.527Z,22.75
2022-12-24T11:12:18.502Z,22.71
2022-12-24T11:14:48.862Z,22.66
2022-12-24T11:17:25.647Z,22.61
2022-12-24T11:19:55.888Z,22.54
2022-12-24T11:22:30.655Z,22.48
2022-12-24T11:25:21.432Z,22.42
2022-12-24T11:27:54.741Z,22.36
2022-12-24T11:30:35.778Z,22.30
2022-12-24T11:33:25.630Z,22.26
2022-12-24T11:36:03.347Z,22.20
2022-12-24T11:38:36.221Z,22.16
2022-12-24T11:41:11.837Z,22.12
2022-12-24T11:43:48.288Z,22.08
2022-12-24T11:46:24.078Z,22.06
2022-12-24T11:49:17.738Z,22.03
2022-12-24T11:52:25.534Z,21.98
2022-12-24T11:55:19.495Z,21.92
2022-12-24T11:58:00.850Z,21.89
2022-12-24T12:00:33.495Z,21.87
2022-12-24T12:03:13.053Z,21.83
2022-12-24T12:05:43.512Z,21.79
2022-12-24T12:08:22.786Z,21.78
2022-12-24T12:10:57.062Z,21.75
2022-12-24T12:13:35.249Z,21.74
2022-12-24T12:16:20.949Z,21.73
2022-12-24T12:19:01.888Z,21.73
2022-12-24T12:21:44.031Z,21.75
2022-12-24T12:24:28.261Z,21.75
2022-12-24T12:27:18.204Z,21.73
2022-12-24T12:29:56.696Z,21.74
2022-12-24T12:32:39.766Z,21.75
2022-12-24T12:35:28.505Z,21.74
2022-12-24T12:38:03.625Z,21.74
2022-12-24T12:41:03.732Z,21.74
2022-12-24T12:43:54.912Z,21.74
2022-12-24T12:46:37.660Z,21.75
2022-12-24T12:49:30.277Z,21.73
2022-12-24T12:52:15.772Z,21.72
2022-12-24T12:55:23.892Z,21.73
2022-12-24T12:58:01.250Z,21.73
2022-12-24T13:00:38.882Z,21.74
2022-12-24T13:04:05.374Z,21.74
2022-12-24T13:07:35.848Z,21.75
2022-12-24T13:10:51.019Z,21.77
2022-12-24T13:14:16.572Z,21.78
2022-12-24T13:17:41.289Z,21.80
2022-12-24T13:20:26.632Z,21.83
2022-12-24T13:23:04.651Z,21.85
2022-12-24T13:25:40.614Z,21.86
2022-12-24T13:28:39.117Z,21.88
2022-12-24T13:31:31.419Z,21.88
2022-12-24T13:34:06.885Z,21.90
2022-12-24T13:37:23.554Z,21.90
2022-12-24T13:40:24.574Z,21.88
2022-12-24T13:43:12.871Z,21.86
2022-12-24T13:45:52.713Z,21.86
2022-12-24T13:48:36.845Z,21.88
2022-12-24T13:51:27.718Z,21.90
2022-12-24T13:54:02.730Z,21.91
2022-12-24T13:56:39.064Z,21.91
2022-12-24T13:59:39.256Z,21.91
2022-12-24T14:02:23.538Z,21.92
2022-12-24T14:04:55.344Z,21.91
2022-12-24T14:07:25.784Z,21.90
2022-12-24T14:09:56.333Z,21.88
2022-12-24T14:12:54.473Z,21.88
2022-12-24T14:16:05.097Z,21.86
2022-12-24T14:18:41.146Z,21.85
2022-12-24T14:21:23.048Z,21.85
2022-12-24T14:23:58.464Z,21.87
2022-12-24T14:26:34.428Z,21.88
2022-12-24T14:29:24.449Z,21.90
2022-12-24T14:31:56.950Z,21.91
2022-12-24T14:34:28.512Z,21.92
2022-12-24T14:37:02.457Z,21.94
2022-12-24T14:39:38.457Z,21.94
2022-12-24T14:42:31.411Z,21.92
2022-12-24T14:45:21.421Z,21.92
2022-12-24T14:48:03.707Z,21.89
2022-12-24T14:51:01.907Z,21.89
2022-12-24T14:54:06.270Z,21.88
2022-12-24T14:56:36.682Z,21.85
2022-12-24T14:59:19.212Z,21.85
2022-12-24T15:01:51.604Z,21.86
2022-12-24T15:04:21.502Z,21.85
2022-12-24T15:06:57.945Z,21.86
2022-12-24T15:09:34.327Z,21.85
2022-12-24T15:12:06.039Z,21.83
2022-12-24T15:14:46.249Z,21.82
2022-12-24T15:17:18.649Z,21.82
2022-12-24T15:19:54.232Z,21.81
2022-12-24T15:22:30.501Z,21.79
2022-12-24T15:25:01.046Z,21.79
2022-12-24T15:27:35.202Z,21.79
2022-12-24T15:30:17.934Z,21.79
2022-12-24T15:32:52.572Z,21.79
2022-12-24T15:35:53.370Z,21.79
2022-12-24T15:38:32.241Z,21.78
2022-12-24T15:41:07.528Z,21.76
2022-12-24T15:43:43.212Z,21.78
2022-12-24T15:46:20.952Z,21.79
2022-12-24T15:48:55.201Z,21.79
2022-12-24T15:51:29.779Z,21.79
2022-12-24T15:54:04.421Z,21.76
2022-12-24T15:56:40.187Z,21.74
2022-12-24T15:59:33.090Z,21.71
2022-12-24T16:02:43.322Z,21.67
2022-12-24T16:05:40.749Z,21.64
2022-12-24T16:08:28.455Z,21.63
2022-12-24T16:11:16.856Z,21.63
2022-12-24T16:14:13.361Z,21.63
2022-12-24T16:16:48.975Z,21.63
2022-12-24T16:19:24.583Z,21.63
2022-12-24T16:21:59.814Z,21.65
2022-12-24T16:24:33.325Z,21.66
2022-12-24T16:27:05.447Z,21.68
2022-12-24T16:29:35.809Z,21.70
2022-12-24T16:32:06.286Z,21.69
2022-12-24T16:34:36.932Z,21.66
2022-12-24T16:37:08.595Z,21.64
2022-12-24T16:39:38.687Z,21.62
2022-12-24T16:42:25.461Z,21.61
2022-12-24T16:44:56.333Z,21.60
2022-12-24T16:47:37.163Z,21.61
2022-12-24T16:50:18.070Z,21.61
2022-12-24T16:52:49.951Z,21.62
2022-12-24T16:55:20.543Z,21.63
2022-12-24T16:57:50.319Z,21.64
2022-12-24T17:00:23.538Z,21.65
2022-12-24T17:02:53.838Z,21.67
2022-12-24T17:05:24.597Z,21.69
2022-12-24T17:07:56.755Z,21.70
2022-12-24T17:10:26.977Z,21.72
2022-12-24T17:12:58.193Z,21.74
2022-12-24T17:15:28.215Z,21.76
2022-12-24T17:17:58.657Z,21.78
2022-12-24T17:20:29.140Z,21.78
2022-12-24T17:23:01.964Z,21.76
2022-12-24T17:25:32.275Z,21.75
2022-12-24T17:28:02.372Z,21.74
2022-12-24T17:30:32.418Z,21.74
2022-12-24T17:33:02.036Z,21.74
2022-12-24T17:35:32.335Z,21.75
2022-12-24T17:38:04.297Z,21.76
2022-12-24T17:40:34.765Z,21.77
2022-12-24T17:43:05.169Z,21.77
2022-12-24T17:45:35.708Z,21.77
2022-12-24T17:48:05.742Z,21.77
2022-12-24T17:50:39.338Z,21.76
2022-12-24T17:53:11.636Z,21.76
2022-12-24T17:55:43.689Z,21.75
2022-12-24T17:58:15.666Z,21.75
2022-12-24T18:00:46.017Z,21.74
2022-12-24T18:03:16.933Z,21.74
2022-12-24T18:05:46.921Z,21.75
2022-12-24T18:08:19.378Z,21.75
2022-12-24T18:10:49.927Z,21.75
2022-12-24T18:13:20.246Z,21.76
2022-12-24T18:15:50.544Z,21.75
2022-12-24T18:18:21.033Z,21.75
2022-12-24T18:20:50.604Z,21.73
2022-12-24T18:23:22.143Z,21.74
2022-12-24T18:25:52.405Z,21.74
2022-12-24T18:28:22.138Z,21.73
2022-12-24T18:31:00.920Z,21.74
2022-12-24T18:33:32.069Z,21.72
2022-12-24T18:36:02.560Z,21.70
2022-12-24T18:38:35.509Z,21.70
2022-12-24T18:41:07.959Z,21.70
2022-12-24T18:43:38.499Z,21.68
2022-12-24T18:46:13.049Z,21.68
2022-12-24T18:48:43.981Z,21.67
2022-12-24T18:51:14.328Z,21.67
2022-12-24T18:53:46.832Z,21.68
2022-12-24T18:56:19.974Z,21.68
2022-12-24T18:58:50.505Z,21.67
2022-12-24T19:01:23.627Z,21.68
2022-12-24T19:03:55.116Z,21.68
2022-12-24T19:06:26.541Z,21.67
2022-12-24T19:08:59.625Z,21.66
2022-12-24T19:11:34.643Z,21.64
2022-12-24T19:14:07.831Z,21.64
2022-12-24T19:16:40.583Z,21.62
2022-12-24T19:19:14.280Z,21.63
2022-12-24T19:21:44.600Z,21.60
2022-12-24T19:24:16.619Z,21.60
2022-12-24T19:26:46.859Z,21.59
2022-12-24T19:29:17.629Z,21.59
2022-12-24T19:31:48.053Z,21.58
2022-12-24T19:34:18.430Z,21.58
2022-12-24T19:36:48.559Z,21.58
2022-12-24T19:39:22.333Z,21.58
2022-12-24T19:41:55.865Z,21.57
2022-12-24T19:44:26.458Z,21.58
2022-12-24T19:46:57.043Z,21.57
2022-12-24T19:49:27.471Z,21.56
2022-12-24T19:51:57.334Z,21.54
2022-12-24T19:54:30.411Z,21.54
2022-12-24T19:57:00.734Z,21.53
2022-12-24T19:59:31.170Z,21.52
2022-12-24T20:02:01.556Z,21.52
2022-12-24T20:04:32.103Z,21.51
2022-12-24T20:07:03.759Z,21.51
2022-12-24T20:09:36.064Z,21.52
2022-12-24T20:12:07.168Z,21.51
2022-12-24T20:14:37.504Z,21.51
2022-12-24T20:17:08.063Z,21.52
2022-12-24T20:19:37.895Z,21.51
2022-12-24T20:22:10.471Z,21.53
2022-12-24T20:24:42.688Z,21.52
2022-12-24T20:27:12.438Z,21.52
2022-12-24T20:29:42.794Z,21.52
2022-12-24T20:32:13.580Z,21.51
2022-12-24T20:34:43.251Z,21.50
2022-12-24T20:37:13.096Z,21.49
2022-12-24T20:39:45.076Z,21.48
2022-12-24T20:42:14.889Z,21.46
2022-12-24T20:44:44.858Z,21.44
2022-12-24T20:47:15.513Z,21.41
2022-12-24T20:49:46.399Z,21.40
2022-12-24T20:52:16.299Z,21.39
2022-12-24T20:54:48.849Z,21.38
2022-12-24T20:57:24.700Z,21.38
2022-12-24T20:59:55.661Z,21.38
2022-12-24T21:02:26.322Z,21.38
2022-12-24T21:05:01.853Z,21.36
2022-12-24T21:07:32.978Z,21.36
2022-12-24T21:10:05.453Z,21.35
2022-12-24T21:12:57.290Z,21.32
2022-12-24T21:15:30.614Z,21.30
2022-12-24T21:18:01.597Z,21.27
2022-12-24T21:20:31.771Z,21.25
2022-12-24T21:23:02.441Z,21.25
2022-12-24T21:25:35.341Z,21.26
2022-12-24T21:28:05.771Z,21.24
2022-12-24T21:30:35.736Z,21.25
2022-12-24T21:33:05.936Z,21.25
2022-12-24T21:35:36.472Z,21.24
2022-12-24T21:38:06.799Z,21.24
2022-12-24T21:40:40.750Z,21.24
2022-12-24T21:43:11.208Z,21.24
2022-12-24T21:45:43.832Z,21.24
2022-12-24T21:48:27.012Z,21.23
2022-12-24T21:51:10.163Z,21.21
2022-12-24T21:53:56.767Z,21.20
2022-12-24T21:56:29.183Z,21.20
2022-12-24T21:58:57.665Z,21.20
2022-12-24T22:01:27.664Z,21.19
2022-12-24T22:03:58.071Z,21.20
2022-12-24T22:06:45.755Z,21.19
2022-12-24T22:09:32.715Z,21.17
2022-12-24T22:12:05.183Z,21.15
2022-12-24T22:14:35.337Z,21.14
2022-12-24T22:17:04.995Z,21.13
2022-12-24T22:19:35.401Z,21.13
2022-12-24T22:22:06.029Z,21.11
2022-12-24T22:24:36.754Z,21.11
2022-12-24T22:27:08.696Z,21.10
2022-12-24T22:29:39.103Z,21.09
2022-12-24T22:32:09.979Z,21.08
2022-12-24T22:34:40.338Z,21.09
2022-12-24T22:37:10.211Z,21.09
2022-12-24T22:39:41.205Z,21.09
2022-12-24T22:42:13.199Z,21.12
2022-12-24T22:44:43.225Z,21.13
2022-12-24T22:47:12.866Z,21.14
2022-12-24T22:49:43.287Z,21.15
2022-12-24T22:52:14.404Z,21.15
2022-12-24T22:54:44.501Z,21.15
2022-12-24T22:57:16.213Z,21.15
2022-12-24T22:59:47.603Z,21.14
2022-12-24T23:02:24.017Z,21.16
2022-12-24T23:04:58.808Z,21.16
2022-12-24T23:07:28.965Z,21.17
2022-12-24T23:10:00.222Z,21.19
2022-12-24T23:12:48.711Z,21.19
2022-12-24T23:15:19.275Z,21.18
2022-12-24T23:17:52.048Z,21.20
2022-12-24T23:20:22.072Z,21.19
2022-12-24T23:22:52.449Z,21.17
2022-12-24T23:25:22.480Z,21.16
2022-12-24T23:27:54.650Z,21.16
2022-12-24T23:30:24.807Z,21.14
2022-12-24T23:32:54.586Z,21.14
2022-12-24T23:35:24.805Z,21.14
2022-12-24T23:37:54.533Z,21.12
2022-12-24T23:40:24.847Z,21.13
2022-12-24T23:42:56.827Z,21.12
2022-12-24T23:45:28.463Z,21.13
2022-12-24T23:47:58.816Z,21.13
2022-12-24T23:50:28.720Z,21.15
2022-12-24T23:52:59.006Z,21.15
2022-12-24T23:55:30.321Z,21.14
2022-12-24T23:58:02.701Z,21.12
